Accueil
METAR-TAF:

METAR-TAF

Aéroports :

Aéroport international de Zinder

Zinder, Niger

latitude: 13-47N, longitude: 008-59E, altitude: 452 m

Observation

Le bulletin a été fait il y a 2 heures et 0 minutes, à 03:00 UTC
Vent calme
Température 29°C
Humidité 27%
Pression 1007 hPa
Visibilité: 8000 m

METAR: DRZR 030300Z 00000KT 8000 NSC 29/08 Q1007

Heure: 06:00 (05:00 UTC)

Prévision

Le bulletin a été fait il y a 6 heures et 0 minutes, à 23:00 UTC
Prévision valable du 03 à 00 UTC au 03 à 24 UTC
Vent 8 kt de nord/nord-est
Visibilité: 8000 m

TAF: DRZR 022300Z 0300/0324 02008KT 8000 NSC

Observations et prévisions météorologiques de plus de 4000 aéroports (messages METAR et TAF).

Les stations disponibles sont représentées par des disques jaunes et rouges sur la carte.

Passer la souris dessus pour voir le nom de la station.

Cliquer dessus pour voir les observations et prévisions météorologiques.

Pour changer de carte: cliquez sur les boutons verts avec une croix noire pour zoomer, sur le bouton vert avec un tiret pour effectuer un zoom arrière, ou sur les flèches vertes pour les cartes adjacentes.


METAR-TAF: